Queenstown, MD (21658)

2:42 PM EDT on August 27, 2014 (GMT -0400)
Governor Grayson | Change Station
CLOSE
Current Station
Personal Weather Station
Location: Queenstown, MD
Elevation: 23 ft
Nearby Weather Stations
Active Advisory: Air Quality Alert

Elev 23 ft 38.96 °N, 76.17 °W | Updated 6 minutes ago

Clear
Clear
89.2 °F
Feels Like 94 °F
N
2.7
Wind Variable Wind from East

Today
High -- | Low -- °F
--% Chance of Precip.
Yesterday
High -- | Low -- °F
Precip. -- in
6:28 AM 7:42 PM
Waxing Crescent, 4% visible
Pressure 30.04 in
Visibility 10.0 miles
Clouds Clear
Heat Index 94 °F
Dew Point 70 °F
Humidity 53%
Rainfall 0.00 in
Snow Depth Not available.
UV 10 out of 12
Pollen 9.50 out of 12
Air Quality Not available.
Flu Activity Not available.
SPECI KESN 271750Z 00000KT 10SM SKC 30/19 A3004

More Conditions Fewer Conditions

Pressure 30.04 in
Visibility 10.0 miles
Clouds Clear
Heat Index 94 °F
Dew Point 70 °F
Humidity 53%
Rainfall 0.00 in
Snow Depth Not available.
UV 10 out of 12
Pollen 9.50 out of 12
Air Quality Not available.
Flu Activity Not available.
SPECI KESN 271750Z 00000KT 10SM SKC 30/19 A3004

More Conditions Fewer Conditions

10-Day Weather Forecast

Almanac

Astronomy

Aug. 27, 2014 Rise Set
Actual Time 6:28 AM EDT 7:42 PM EDT
Civil Twilight 6:01 AM EDT 8:10 PM EDT
Nautical Twilight 5:28 AM EDT 8:42 PM EDT
Astronomical Twilight 4:53 AM EDT 9:17 PM EDT
Moon 8:21 AM EDT 8:35 PM EDT
Length of Visible Light 14h 08m
Length of Day
13h 13m
Tomorrow will be 2m 23s shorter.
Waxing Crescent, 4% of the Moon is Illuminated
Today
Waxing Crescent
Sep 2
First Quarter
Sep 8
Full
Sep 15
Last Quarter
Sep 24
New

Today's Extremes

State Highs State Lows

Community

WunderPhotos

Upload Photos

1,747,752 photos uploaded!

Nearby

Snow Depth

Station Depth Elevation
No new snow has been reported.

Earthquake Activity

City Distance Mag. Time & Date
No recent earthquake activity has been reported nearby.
Minimum magnitude displayed is 2.5.

Coastal Water Temperatures

Place Temperature
Tolchester Beach, MD 78.1 °F
Baltimore, MD 81.0 °F
Cambridge, MD 78.1 °F
Chesapeake City, MD 78.1 °F

Nearby Weather Stations